Time;durP1;ratioP1;P1;durP2;ratioP2;P2;SDS_P1;SDS_P2;PMS_P1;PMS_P2;Temp;Humidity;BMP_temperature;BMP_pressure;BME280_temperature;BME280_humidity;BME280_pressure;Samples;Min_cycle;Max_cycle;Signal;HPM_P1;HPM_P2
2023/05/20 00:01:35;;;;;;;6.38;2.30;;;;;;;14.92;57.24;102284.97;5269544;28;20493;-68
2023/05/20 00:04:06;;;;;;;4.97;2.20;;;;;;;14.83;58.19;102274.19;5272187;28;20125;-68
2023/05/20 00:06:38;;;;;;;12.00;3.10;;;;;;;14.72;59.25;102273.38;5272171;28;20043;-68
2023/05/20 00:09:09;;;;;;;4.78;2.63;;;;;;;14.76;59.23;102265.09;5276740;28;20481;-67
2023/05/20 00:11:41;;;;;;;6.20;2.70;;;;;;;14.78;59.20;102265.00;5276174;28;20032;-69
2023/05/20 00:14:12;;;;;;;10.63;2.97;;;;;;;14.76;60.49;102270.38;5272345;28;20064;-68
2023/05/20 00:16:43;;;;;;;5.75;2.30;;;;;;;14.69;60.46;102281.53;5276994;28;20040;-68
2023/05/20 00:19:15;;;;;;;5.30;2.53;;;;;;;14.57;61.48;102275.44;5274560;28;20016;-68
2023/05/20 00:21:46;;;;;;;4.90;2.53;;;;;;;14.52;61.76;102269.69;5275582;28;20032;-68
2023/05/20 00:24:17;;;;;;;5.40;2.53;;;;;;;14.49;63.03;102283.94;5277320;28;20024;-67
2023/05/20 00:26:49;;;;;;;8.40;3.25;;;;;;;14.50;63.64;102282.16;5274150;28;20028;-68
2023/05/20 00:29:20;;;;;;;7.72;2.67;;;;;;;14.45;63.97;102287.75;5272337;28;20133;-68
2023/05/20 00:31:52;;;;;;;7.32;2.45;;;;;;;14.39;64.37;102285.59;5276536;28;20020;-67
2023/05/20 00:34:23;;;;;;;5.82;2.65;;;;;;;14.40;65.24;102275.91;5276207;28;20077;-68
2023/05/20 00:36:55;;;;;;;8.70;3.28;;;;;;;14.32;65.07;102271.22;5277201;28;20028;-67
2023/05/20 00:39:26;;;;;;;5.25;2.50;;;;;;;14.32;65.25;102273.88;5275558;28;20035;-67
2023/05/20 00:41:59;;;;;;;7.85;3.10;;;;;;;14.31;66.70;102267.72;5275380;28;20033;-68
2023/05/20 00:44:30;;;;;;;;;;;;;;;15.03;59.72;102269.94;5257624;28;20110;-67
2023/05/20 00:47:01;;;;;;;9.37;2.90;;;;;;;14.28;65.56;102270.63;5277296;28;20448;-68
2023/05/20 00:49:33;;;;;;;6.38;2.90;;;;;;;14.14;66.19;102252.41;5271980;28;20317;-68
2023/05/20 00:52:05;;;;;;;6.95;2.90;;;;;;;14.10;66.38;102267.63;5273253;28;20028;-68
2023/05/20 00:54:38;;;;;;;5.43;2.90;;;;;;;14.09;67.06;102257.16;5276963;28;20036;-68
2023/05/20 00:57:10;;;;;;;9.40;3.35;;;;;;;14.14;67.77;102270.03;5275942;28;20024;-67
2023/05/20 00:59:41;;;;;;;6.20;2.67;;;;;;;14.10;67.58;102253.59;5272481;28;20539;-67
2023/05/20 01:02:13;;;;;;;10.35;2.97;;;;;;;14.09;68.07;102267.72;5273528;28;20033;-67
2023/05/20 01:04:46;;;;;;;8.15;3.00;;;;;;;14.01;68.58;102260.41;5273204;28;20060;-69
2023/05/20 01:07:18;;;;;;;9.30;3.42;;;;;;;14.01;68.27;102262.19;5276298;28;20031;-67
2023/05/20 01:09:51;;;;;;;6.40;2.40;;;;;;;13.98;69.65;102246.63;5274216;28;20031;-67
2023/05/20 01:12:29;;;;;;;5.13;2.70;;;;;;;14.00;69.45;102252.63;5258444;28;20103;-68
2023/05/20 01:15:06;;;;;;;8.55;3.08;;;;;;;13.95;70.56;102260.88;5276064;28;20101;-68
2023/05/20 01:17:43;;;;;;;7.97;3.22;;;;;;;13.87;70.01;102265.91;5272378;28;20480;-67
2023/05/20 01:20:15;;;;;;;7.22;3.20;;;;;;;13.84;71.65;102256.44;5270730;28;20040;-69
2023/05/20 01:22:56;;;;;;;5.68;2.65;;;;;;;14.00;70.82;102255.25;5277363;28;20070;-68
2023/05/20 01:25:27;;;;;;;7.70;3.13;;;;;;;13.77;71.42;102255.22;5273516;28;20105;-67
2023/05/20 01:27:59;;;;;;;7.47;3.10;;;;;;;13.70;72.35;102248.72;5256905;28;20492;-68
2023/05/20 01:30:37;;;;;;;8.40;3.60;;;;;;;13.77;73.25;102259.66;5308520;22;20048;-67
2023/05/20 01:33:11;;;;;;;8.82;3.35;;;;;;;13.66;73.81;102254.34;5292256;28;20055;-66
2023/05/20 01:35:42;;;;;;;9.52;3.80;;;;;;;13.59;72.68;102244.28;5297796;28;20039;-66
2023/05/20 01:38:14;;;;;;;11.52;3.72;;;;;;;13.61;73.16;102245.00;5297197;28;20103;-66
2023/05/20 01:40:47;;;;;;;9.93;2.95;;;;;;;13.55;73.97;102242.81;5290328;28;20163;-66
2023/05/20 01:43:19;;;;;;;;;;;;;;;14.30;67.16;102250.25;5291128;28;20361;-65
2023/05/20 01:45:51;;;;;;;8.40;3.50;;;;;;;13.58;73.13;102244.41;5287593;28;20013;-66
2023/05/20 01:48:22;;;;;;;6.88;3.25;;;;;;;13.51;74.56;102235.28;5284771;28;20024;-66
2023/05/20 01:50:53;;;;;;;8.30;3.10;;;;;;;13.52;74.30;102236.94;5272879;28;20017;-66
2023/05/20 01:53:24;;;;;;;6.20;3.47;;;;;;;13.51;74.99;102236.13;5270958;28;20476;-65
2023/05/20 01:55:56;;;;;;;8.65;3.95;;;;;;;13.41;75.04;102232.50;5289180;28;20031;-66
2023/05/20 01:58:27;;;;;;;5.93;3.10;;;;;;;13.47;75.28;102234.66;5289974;28;20028;-66
2023/05/20 02:00:59;;;;;;;8.45;3.25;;;;;;;13.38;75.38;102233.56;5266284;28;20028;-67
2023/05/20 02:03:30;;;;;;;10.70;3.95;;;;;;;13.31;75.57;102234.97;5291151;28;20027;-66
2023/05/20 02:06:01;;;;;;;7.15;3.40;;;;;;;13.31;77.68;102227.06;5284852;28;20026;-66
2023/05/20 02:08:32;;;;;;;7.65;3.13;;;;;;;13.24;77.79;102238.16;5271006;28;20032;-66
2023/05/20 02:11:04;;;;;;;6.22;3.13;;;;;;;13.22;77.85;102233.00;5282114;28;20503;-66
2023/05/20 02:13:35;;;;;;;9.07;3.17;;;;;;;13.17;79.23;102229.84;5291326;28;20026;-66
2023/05/20 02:16:06;;;;;;;6.47;3.22;;;;;;;13.10;79.21;102236.50;5280909;28;20120;-67
2023/05/20 02:18:38;;;;;;;9.55;3.35;;;;;;;13.08;79.83;102239.28;5284075;28;20681;-66
2023/05/20 02:21:09;;;;;;;6.45;3.45;;;;;;;13.13;80.30;102229.22;5284021;28;20052;-66
2023/05/20 02:23:40;;;;;;;7.10;3.05;;;;;;;13.09;80.71;102229.59;5289570;28;20032;-66
2023/05/20 02:26:12;;;;;;;10.30;3.67;;;;;;;13.07;80.80;102236.75;5285941;28;20054;-67
2023/05/20 02:28:45;;;;;;;8.88;3.90;;;;;;;12.96;81.59;102226.19;5280999;28;20040;-66
2023/05/20 02:31:16;;;;;;;8.27;3.63;;;;;;;12.96;81.98;102227.03;5283056;28;20477;-66
2023/05/20 02:33:48;;;;;;;7.53;3.47;;;;;;;12.97;80.86;102223.44;5288675;28;20035;-66
2023/05/20 02:36:20;;;;;;;5.97;3.40;;;;;;;12.98;81.65;102214.56;5285604;28;20021;-66
2023/05/20 02:38:53;;;;;;;8.68;3.95;;;;;;;12.84;81.96;102215.59;5289659;28;20016;-66
2023/05/20 02:41:24;;;;;;;7.10;3.60;;;;;;;12.90;82.03;102219.56;5284562;28;20032;-66
2023/05/20 02:43:55;;;;;;;11.32;3.97;;;;;;;12.94;81.97;102231.53;5284651;28;20038;-66
2023/05/20 02:46:27;;;;;;;9.02;3.45;;;;;;;13.01;83.56;102229.31;5284856;28;20027;-67
2023/05/20 02:48:58;;;;;;;7.93;3.65;;;;;;;12.95;82.59;102222.69;5282163;28;20032;-66
2023/05/20 02:51:30;;;;;;;7.22;3.50;;;;;;;12.94;84.17;102222.81;5282319;28;20373;-66
2023/05/20 02:54:02;;;;;;;7.13;3.50;;;;;;;12.85;83.33;102224.31;5281355;28;20065;-66
2023/05/20 02:56:33;;;;;;;8.13;3.85;;;;;;;12.77;84.58;102214.38;5282359;28;20270;-66
2023/05/20 02:59:06;;;;;;;7.55;3.65;;;;;;;12.84;84.54;102223.50;5286568;28;20037;-65
2023/05/20 03:01:39;;;;;;;8.05;3.40;;;;;;;12.82;84.84;102225.38;5283293;28;20099;-66
2023/05/20 03:04:10;;;;;;;;;;;;;;;13.52;77.59;102221.16;5286226;28;20034;-65
2023/05/20 03:06:43;;;;;;;7.50;4.00;;;;;;;12.81;83.88;102217.63;5289267;28;19907;-66
2023/05/20 03:09:14;;;;;;;5.95;3.60;;;;;;;12.78;85.73;102218.66;5286098;28;20293;-66
2023/05/20 03:11:47;;;;;;;8.07;3.60;;;;;;;12.73;85.74;102218.16;5288119;28;20032;-67
2023/05/20 03:14:18;;;;;;;11.73;4.22;;;;;;;12.73;86.00;102215.53;5282889;28;20029;-66
2023/05/20 03:16:49;;;;;;;12.05;4.18;;;;;;;12.73;86.22;102218.16;5283740;28;20093;-66
2023/05/20 03:19:21;;;;;;;7.20;3.83;;;;;;;12.70;86.61;102215.75;5272868;28;20026;-67
2023/05/20 03:21:52;;;;;;;8.57;4.53;;;;;;;12.65;86.75;102213.47;5280219;28;20027;-66
2023/05/20 03:24:24;;;;;;;8.85;3.72;;;;;;;12.61;87.34;102216.38;5280248;28;20062;-66
2023/05/20 03:26:55;;;;;;;10.63;4.57;;;;;;;12.56;87.62;102216.72;5283622;28;20024;-66
2023/05/20 03:29:26;;;;;;;9.35;3.60;;;;;;;12.57;88.14;102218.41;5286072;28;20140;-66
2023/05/20 03:31:58;;;;;;;6.55;3.92;;;;;;;12.54;88.76;102213.38;5268074;28;20021;-66
2023/05/20 03:34:29;;;;;;;5.32;3.80;;;;;;;12.44;89.25;102219.41;5272566;28;20081;-66
2023/05/20 03:37:01;;;;;;;6.93;3.70;;;;;;;12.47;89.08;102219.19;5279749;28;20029;-66
2023/05/20 03:39:32;;;;;;;8.05;4.00;;;;;;;12.46;88.49;102228.00;5262892;28;20031;-67
2023/05/20 03:42:04;;;;;;;7.55;4.13;;;;;;;12.43;90.33;102221.19;5273091;28;20028;-66
2023/05/20 03:44:35;;;;;;;7.78;3.88;;;;;;;12.41;90.28;102218.66;5288952;28;20036;-66
2023/05/20 03:47:06;;;;;;;6.78;3.70;;;;;;;12.46;90.98;102214.84;5286957;28;20016;-67
2023/05/20 03:49:39;;;;;;;6.30;3.97;;;;;;;12.39;91.36;102217.94;5289011;28;20031;-66
2023/05/20 03:52:11;;;;;;;9.48;3.88;;;;;;;12.45;91.84;102214.03;5290005;28;20445;-66
2023/05/20 03:54:42;;;;;;;10.40;4.43;;;;;;;12.43;93.11;102215.09;5285442;28;20028;-66
2023/05/20 03:57:13;;;;;;;8.40;4.20;;;;;;;12.39;92.53;102215.31;5285532;28;20040;-66
2023/05/20 03:59:45;;;;;;;6.72;3.97;;;;;;;12.44;92.51;102211.50;5288521;28;20027;-66
2023/05/20 04:02:16;;;;;;;7.40;4.25;;;;;;;12.44;93.46;102211.50;5288894;28;20047;-66
2023/05/20 04:04:51;;;;;;;6.30;4.20;;;;;;;12.37;93.52;102205.84;5286224;28;20084;-66
2023/05/20 04:07:22;;;;;;;8.85;4.72;;;;;;;12.36;94.73;102210.25;5290088;28;20031;-66
2023/05/20 04:09:54;;;;;;;11.55;4.10;;;;;;;12.43;94.10;102213.31;5284970;28;20035;-66
2023/05/20 04:12:29;;;;;;;7.25;4.25;;;;;;;12.38;94.69;102218.88;5287556;28;20066;-67
2023/05/20 04:15:01;;;;;;;8.30;3.97;;;;;;;12.38;96.53;102223.28;5285818;28;20107;-66
2023/05/20 04:17:32;;;;;;;8.82;4.63;;;;;;;12.34;97.60;102222.66;5287171;28;20111;-66
2023/05/20 04:20:06;;;;;;;8.60;4.35;;;;;;;12.35;96.96;102221.72;5282783;28;20678;-66
2023/05/20 04:22:38;;;;;;;8.13;4.45;;;;;;;12.33;97.23;102220.16;5286269;28;20051;-67
2023/05/20 04:25:10;;;;;;;8.47;4.40;;;;;;;12.37;97.87;102211.09;5283263;28;20024;-66
2023/05/20 04:27:42;;;;;;;10.30;4.30;;;;;;;12.37;98.09;102219.81;5288993;28;20294;-66
2023/05/20 04:30:16;;;;;;;9.30;4.37;;;;;;;12.51;97.37;102224.09;5284325;28;20570;-66
2023/05/20 04:32:49;;;;;;;8.10;4.35;;;;;;;12.47;97.14;102225.28;5289728;28;20063;-66
2023/05/20 04:35:24;;;;;;;7.50;4.40;;;;;;;12.52;96.34;102222.31;5290415;28;20020;-66
2023/05/20 04:37:55;;;;;;;8.90;4.35;;;;;;;12.50;96.57;102221.56;5285508;28;20516;-67
2023/05/20 04:40:27;;;;;;;8.23;4.40;;;;;;;12.50;96.63;102209.31;5288531;28;20107;-66
2023/05/20 04:42:59;;;;;;;9.00;4.20;;;;;;;12.58;97.56;102217.47;5282641;28;20675;-67
2023/05/20 04:45:32;;;;;;;6.90;4.38;;;;;;;12.61;97.31;102216.38;5292214;28;20042;-67
2023/05/20 04:48:04;;;;;;;7.85;4.57;;;;;;;12.64;96.36;102205.66;5289588;28;20032;-67
2023/05/20 04:50:36;;;;;;;7.57;4.35;;;;;;;12.69;98.00;102211.44;5281296;28;20036;-67
2023/05/20 04:53:08;;;;;;;7.15;3.78;;;;;;;12.75;97.95;102220.66;5286472;28;20445;-67
2023/05/20 04:55:39;;;;;;;10.00;4.03;;;;;;;12.76;97.51;102207.41;5286967;28;20120;-67
2023/05/20 04:58:14;;;;;;;9.13;4.50;;;;;;;12.81;96.33;102215.81;5290710;28;20020;-67
2023/05/20 05:00:45;;;;;;;9.13;4.60;;;;;;;12.87;95.96;102215.34;5285836;28;20028;-67
2023/05/20 05:03:17;;;;;;;6.45;4.28;;;;;;;12.97;95.93;102222.59;5286838;28;20050;-68
2023/05/20 05:05:48;;;;;;;11.77;4.80;;;;;;;12.95;95.62;102216.59;5285654;28;20487;-67
2023/05/20 05:08:19;;;;;;;7.10;4.28;;;;;;;12.99;95.22;102205.72;5287229;28;20585;-67
2023/05/20 05:10:51;;;;;;;8.82;3.83;;;;;;;13.03;95.71;102209.84;5285162;28;20028;-68
2023/05/20 05:13:22;;;;;;;8.02;5.25;;;;;;;13.08;95.48;102209.50;5288449;28;20019;-67
2023/05/20 05:15:58;;;;;;;7.43;4.20;;;;;;;13.19;95.56;102198.19;5284275;28;20115;-66
2023/05/20 05:18:29;;;;;;;8.55;4.60;;;;;;;13.17;96.00;102206.16;5286439;28;20032;-67
2023/05/20 05:21:05;;;;;;;8.52;4.75;;;;;;;13.30;94.11;102204.34;5284037;28;20078;-67
2023/05/20 05:23:36;;;;;;;8.48;4.93;;;;;;;13.26;94.17;102196.78;5289219;28;20020;-67
2023/05/20 05:26:07;;;;;;;7.57;4.30;;;;;;;13.36;94.23;102198.59;5290396;28;20020;-67
2023/05/20 05:28:41;;;;;;;7.43;4.57;;;;;;;13.46;93.56;102200.56;5290995;28;20426;-67
2023/05/20 05:31:12;;;;;;;8.65;4.22;;;;;;;13.48;92.19;102198.63;5288387;28;20025;-67
2023/05/20 05:33:43;;;;;;;7.32;3.58;;;;;;;13.54;91.75;102204.28;5283283;28;20034;-67
2023/05/20 05:36:15;;;;;;;8.82;4.20;;;;;;;13.58;91.60;102200.47;5286876;28;20021;-67
2023/05/20 05:38:46;;;;;;;11.38;4.60;;;;;;;13.67;91.14;102198.91;5287004;28;20059;-67
2023/05/20 05:41:17;;;;;;;7.57;3.90;;;;;;;13.76;90.34;102195.59;5282242;28;20106;-67
2023/05/20 05:43:49;;;;;;;6.45;4.10;;;;;;;13.77;89.46;102188.53;5267502;28;20384;-67
2023/05/20 05:46:20;;;;;;;7.35;4.07;;;;;;;13.87;89.59;102198.25;5286573;28;20032;-68
2023/05/20 05:48:51;;;;;;;6.65;4.13;;;;;;;13.94;89.56;102188.09;5285281;28;20111;-67
2023/05/20 05:51:24;;;;;;;8.40;4.70;;;;;;;14.00;89.37;102195.50;5283841;28;20030;-67
2023/05/20 05:53:55;;;;;;;6.43;4.20;;;;;;;14.12;87.39;102196.31;5285113;28;20029;-67
2023/05/20 05:56:26;;;;;;;9.85;4.25;;;;;;;14.19;86.51;102202.78;5273856;28;20036;-66
2023/05/20 05:58:58;;;;;;;7.95;4.43;;;;;;;14.27;86.45;102194.28;5283433;28;20020;-66
2023/05/20 06:01:29;;;;;;;6.07;3.47;;;;;;;14.36;86.61;102207.59;5281160;28;20070;-67
2023/05/20 06:04:00;;;;;;;5.47;3.63;;;;;;;14.47;85.54;102203.25;5278598;28;20036;-67
2023/05/20 06:06:32;;;;;;;7.00;3.75;;;;;;;14.55;83.61;102198.25;5282217;28;20110;-67
2023/05/20 06:09:04;;;;;;;8.65;3.95;;;;;;;14.66;83.99;102200.88;5289049;28;20482;-67
2023/05/20 06:11:35;;;;;;;7.38;3.95;;;;;;;14.75;82.38;102201.91;5286188;28;20077;-67
2023/05/20 06:14:06;;;;;;;8.07;3.70;;;;;;;14.82;81.41;102196.00;5279272;28;20115;-67
2023/05/20 06:16:38;;;;;;;9.32;4.03;;;;;;;14.94;81.03;102195.97;5280335;28;20028;-67
2023/05/20 06:19:09;;;;;;;7.18;3.90;;;;;;;15.05;80.08;102201.22;5286049;28;20523;-68
2023/05/20 06:21:40;;;;;;;6.75;3.60;;;;;;;15.13;79.97;102188.22;5279431;28;20028;-68
2023/05/20 06:24:12;;;;;;;5.55;3.38;;;;;;;15.29;79.61;102183.31;5289208;28;20039;-67
2023/05/20 06:26:44;;;;;;;9.93;3.92;;;;;;;15.42;79.13;102182.28;5280528;28;20091;-67
2023/05/20 06:29:16;;;;;;;6.63;4.03;;;;;;;15.49;77.35;102181.69;5261795;28;20039;-67
2023/05/20 06:31:47;;;;;;;6.00;3.78;;;;;;;15.62;74.41;102181.47;5261859;28;20020;-67
2023/05/20 06:34:18;;;;;;;6.22;3.90;;;;;;;15.70;73.88;102181.69;5284573;28;20066;-67
2023/05/20 06:36:49;;;;;;;8.85;4.25;;;;;;;15.85;73.06;102179.53;5285038;28;20028;-67
2023/05/20 06:39:21;;;;;;;7.05;3.67;;;;;;;15.97;71.23;102180.28;5286459;28;20044;-67
2023/05/20 06:41:52;;;;;;;8.40;3.97;;;;;;;16.11;72.17;102172.00;5289994;28;20028;-67
2023/05/20 06:44:25;;;;;;;5.45;3.45;;;;;;;16.19;69.73;102164.22;5279462;28;20518;-67
2023/05/20 06:46:56;;;;;;;7.18;3.35;;;;;;;16.27;68.96;102169.66;5282336;28;20142;-67
2023/05/20 06:49:27;;;;;;;5.80;3.60;;;;;;;16.40;69.30;102164.16;5284585;28;20023;-67
2023/05/20 06:51:58;;;;;;;5.60;3.80;;;;;;;16.54;70.13;102166.38;5285562;28;20027;-67
2023/05/20 06:54:32;;;;;;;8.52;3.70;;;;;;;16.59;67.94;102167.78;5280881;28;20028;-67
2023/05/20 06:57:05;;;;;;;7.57;3.03;;;;;;;16.73;68.41;102162.94;5286654;28;20404;-67
2023/05/20 06:59:36;;;;;;;6.22;3.28;;;;;;;16.86;65.50;102159.19;5283792;28;20032;-68
2023/05/20 07:02:08;;;;;;;6.28;3.45;;;;;;;16.89;63.32;102154.47;5280981;28;20040;-68
2023/05/20 07:04:39;;;;;;;8.65;3.33;;;;;;;16.96;62.13;102152.09;5288506;28;20031;-67
2023/05/20 07:07:10;;;;;;;4.78;3.00;;;;;;;17.11;62.59;102150.69;5283488;28;20020;-67
2023/05/20 07:09:42;;;;;;;5.50;3.00;;;;;;;17.23;61.63;102151.38;5284549;28;20056;-67
2023/05/20 07:12:13;;;;;;;6.07;3.40;;;;;;;17.37;60.77;102144.81;5278245;28;20388;-67
2023/05/20 07:14:44;;;;;;;7.00;3.13;;;;;;;17.61;60.89;102152.25;5285428;28;20024;-68
2023/05/20 07:17:16;;;;;;;7.70;3.47;;;;;;;17.73;59.62;102146.66;5279772;28;20028;-67
2023/05/20 07:19:47;;;;;;;5.47;2.72;;;;;;;17.85;59.25;102144.69;5286018;28;20034;-68
2023/05/20 07:22:18;;;;;;;5.18;2.92;;;;;;;18.01;56.83;102151.19;5284958;28;20039;-70
2023/05/20 07:24:49;;;;;;;7.38;3.33;;;;;;;18.08;54.90;102139.84;5284023;28;20063;-68
2023/05/20 07:27:21;;;;;;;5.57;3.10;;;;;;;18.16;54.67;102139.91;5279456;28;20093;-68
2023/05/20 07:29:52;;;;;;;5.30;3.00;;;;;;;18.26;54.28;102134.56;5280129;28;20061;-67
2023/05/20 07:32:23;;;;;;;6.18;2.80;;;;;;;18.44;54.31;102126.63;5282546;28;20504;-67
2023/05/20 07:34:55;;;;;;;5.22;2.53;;;;;;;18.46;52.20;102140.59;5280305;28;20058;-67
2023/05/20 07:37:26;;;;;;;5.00;2.55;;;;;;;18.61;52.79;102141.72;5282739;28;20029;-66
2023/05/20 07:39:57;;;;;;;6.40;2.88;;;;;;;18.67;52.96;102129.66;5278771;28;20050;-66
2023/05/20 07:42:28;;;;;;;5.03;2.60;;;;;;;18.80;51.78;102126.66;5278178;28;20051;-67
2023/05/20 07:45:00;;;;;;;6.35;3.20;;;;;;;18.84;51.03;102150.09;5264341;28;20101;-67
2023/05/20 07:47:31;;;;;;;6.13;2.80;;;;;;;19.02;51.58;102136.81;5282624;28;20500;-67
2023/05/20 07:50:03;;;;;;;6.13;2.90;;;;;;;19.07;51.31;102131.03;5284784;28;20032;-67
2023/05/20 07:52:34;;;;;;;6.00;2.95;;;;;;;19.08;49.33;102132.69;5279249;28;20028;-66
2023/05/20 07:55:06;;;;;;;4.50;2.95;;;;;;;19.05;48.68;102128.50;5284894;28;20433;-67
2023/05/20 07:57:37;;;;;;;4.47;3.15;;;;;;;19.24;50.04;102127.50;5281003;28;20035;-66
2023/05/20 08:00:10;;;;;;;4.38;2.72;;;;;;;19.34;48.81;102130.06;5280501;28;20031;-67
2023/05/20 08:02:42;;;;;;;4.60;2.95;;;;;;;19.30;48.10;102120.72;5282061;28;20036;-67
2023/05/20 08:05:13;;;;;;;5.85;2.63;;;;;;;19.45;48.79;102116.50;5283282;28;20101;-67
2023/05/20 08:07:44;;;;;;;6.85;3.17;;;;;;;19.51;48.17;102123.00;5286008;28;20110;-67
2023/05/20 08:10:15;;;;;;;6.80;2.95;;;;;;;19.55;48.22;102121.72;5282993;28;20032;-67
2023/05/20 08:12:47;;;;;;;7.95;2.72;;;;;;;19.59;46.61;102112.44;5282875;28;20111;-67
2023/05/20 08:15:18;;;;;;;4.47;2.38;;;;;;;19.68;47.22;102108.84;5264389;28;20032;-67
2023/05/20 08:17:49;;;;;;;3.67;2.50;;;;;;;19.64;45.98;102111.00;5284055;28;20085;-67
2023/05/20 08:20:21;;;;;;;4.97;2.57;;;;;;;19.72;46.38;102107.53;5284280;28;20040;-67
2023/05/20 08:22:52;;;;;;;5.13;2.87;;;;;;;19.73;46.28;102119.00;5288477;28;20439;-66
2023/05/20 08:25:23;;;;;;;7.60;2.75;;;;;;;19.84;45.37;102108.91;5280854;28;20101;-68
2023/05/20 08:27:55;;;;;;;5.07;2.78;;;;;;;19.90;45.23;102110.94;5283039;28;20028;-66
2023/05/20 08:30:26;;;;;;;6.47;2.67;;;;;;;19.94;45.36;102103.47;5281043;28;20099;-67
2023/05/20 08:32:57;;;;;;;5.73;2.47;;;;;;;20.10;45.66;102100.84;5288352;28;20397;-67
2023/05/20 08:35:28;;;;;;;4.70;2.87;;;;;;;19.95;45.34;102099.81;5285793;28;20074;-67
2023/05/20 08:38:00;;;;;;;5.37;2.67;;;;;;;20.12;44.85;102098.88;5283070;28;20028;-67
2023/05/20 08:40:35;;;;;;;5.23;2.53;;;;;;;20.43;45.20;102098.28;5272993;28;20025;-67
2023/05/20 08:43:06;;;;;;;6.68;2.60;;;;;;;20.42;45.11;102094.78;5283708;28;20039;-67
2023/05/20 08:45:38;;;;;;;7.70;2.67;;;;;;;20.55;44.43;102094.31;5286740;28;20027;-67
2023/05/20 08:48:09;;;;;;;10.70;3.07;;;;;;;20.53;43.06;102091.00;5287927;28;20033;-67
2023/05/20 08:50:41;;;;;;;7.27;3.10;;;;;;;20.62;43.06;102086.50;5266070;28;20029;-67
2023/05/20 08:53:13;;;;;;;5.07;3.10;;;;;;;20.59;43.63;102082.34;5285141;28;20482;-67
2023/05/20 08:55:56;;;;;;;9.20;2.83;;;;;;;20.87;43.06;102079.31;5284382;28;20524;-67
2023/05/20 08:58:28;;;;;;;4.38;2.53;;;;;;;20.70;43.56;102078.50;5283728;28;20043;-67
2023/05/20 09:01:00;;;;;;;6.22;2.53;;;;;;;20.58;43.31;102061.22;5281147;28;20115;-67
2023/05/20 09:03:32;;;;;;;6.20;3.30;;;;;;;20.67;42.76;102078.00;5284786;28;20162;-67
2023/05/20 09:06:05;;;;;;;6.17;3.30;;;;;;;20.76;42.76;102088.50;5286481;28;20126;-67
2023/05/20 09:08:36;;;;;;;5.63;2.60;;;;;;;20.78;42.63;102080.34;5283223;28;20032;-66
2023/05/20 09:11:09;;;;;;;4.30;2.43;;;;;;;20.94;42.35;102085.66;5279147;28;20546;-67
2023/05/20 09:13:40;;;;;;;7.03;2.78;;;;;;;20.89;41.97;102080.00;5290601;28;20043;-67
2023/05/20 09:16:12;;;;;;;6.53;2.93;;;;;;;21.06;42.50;102072.81;5284799;28;20020;-67
2023/05/20 09:18:43;;;;;;;3.97;2.57;;;;;;;21.05;41.76;102063.16;5283138;28;20028;-67
2023/05/20 09:21:14;;;;;;;5.53;2.17;;;;;;;21.13;42.14;102069.28;5280437;28;20111;-67
2023/05/20 09:23:47;;;;;;;6.20;2.70;;;;;;;21.19;41.70;102056.31;5280890;28;20032;-67
2023/05/20 09:26:19;;;;;;;;;;;;;;;21.91;41.62;102066.91;5269959;28;20057;-67
2023/05/20 09:28:50;;;;;;;4.45;2.28;;;;;;;21.24;41.03;102059.28;5285326;28;19912;-67
2023/05/20 09:31:27;;;;;;;6.20;2.70;;;;;;;21.37;41.21;102059.63;5281564;28;20034;-67
2023/05/20 09:34:02;;;;;;;4.47;2.45;;;;;;;21.49;41.77;102058.25;5286400;28;20509;-67
2023/05/20 09:36:34;;;;;;;6.03;2.38;;;;;;;21.60;41.20;102057.88;5290597;28;20114;-67
2023/05/20 09:39:11;;;;;;;4.95;2.83;;;;;;;21.60;40.66;102067.72;5281632;28;20028;-67
2023/05/20 09:41:51;;;;;;;4.72;2.42;;;;;;;21.53;40.51;102069.41;5280247;28;20068;-67
2023/05/20 09:44:23;;;;;;;3.88;2.35;;;;;;;21.33;40.20;102072.47;5280095;28;20074;-67
2023/05/20 09:46:55;;;;;;;5.30;2.30;;;;;;;21.51;40.74;102066.06;5270824;28;20107;-67
2023/05/20 09:49:28;;;;;;;4.13;2.75;;;;;;;21.54;40.60;102066.53;5287032;28;20028;-67
2023/05/20 09:52:01;;;;;;;3.60;1.95;;;;;;;21.88;41.21;102068.06;5281006;28;20024;-67
2023/05/20 09:54:32;;;;;;;;;;;;;;;22.45;40.38;102069.56;5285251;28;20374;-67
2023/05/20 09:57:05;;;;;;;4.68;2.35;;;;;;;21.72;39.98;102062.81;5283102;28;19916;-67
2023/05/20 09:59:37;;;;;;;5.35;2.65;;;;;;;21.74;41.00;102060.78;5281559;28;20497;-67
2023/05/20 10:02:09;;;;;;;3.87;2.67;;;;;;;21.95;41.60;102061.03;5281704;28;20039;-67
2023/05/20 10:04:46;;;;;;;5.77;2.67;;;;;;;21.96;40.93;102044.00;5281487;28;20032;-67
2023/05/20 10:07:36;;;;;;;5.68;2.53;;;;;;;22.33;41.24;102055.81;5289186;28;20465;-67
2023/05/20 10:10:22;;;;;;;4.25;3.05;;;;;;;21.99;40.59;102048.16;5287867;28;20039;-67
2023/05/20 10:13:09;;;;;;;4.72;2.72;;;;;;;21.76;41.68;102045.47;5263484;28;20032;-67
2023/05/20 10:16:12;;;;;;;5.00;2.58;;;;;;;21.69;41.75;102049.81;5260042;28;20040;-68
2023/05/20 10:19:15;;;;;;;3.33;2.63;;;;;;;21.88;41.66;102037.88;5275033;28;20045;-67
2023/05/20 10:22:00;;;;;;;4.53;2.60;;;;;;;21.79;41.17;102053.13;5283141;28;20049;-67
2023/05/20 10:24:39;;;;;;;3.45;2.38;;;;;;;21.74;40.60;102029.59;5285394;28;20639;-67
2023/05/20 10:27:15;;;;;;;4.97;2.80;;;;;;;21.54;40.27;102026.53;5280943;28;20470;-67
2023/05/20 10:29:51;;;;;;;4.35;2.85;;;;;;;21.65;40.55;102020.00;5280795;28;20137;-67
2023/05/20 10:32:27;;;;;;;5.03;2.33;;;;;;;21.78;40.52;102019.41;5283207;28;20384;-67
2023/05/20 10:35:04;;;;;;;4.63;2.40;;;;;;;21.70;41.28;102016.81;5283135;28;20055;-67
2023/05/20 10:37:42;;;;;;;7.60;2.47;;;;;;;22.07;40.84;102021.41;5286360;28;20055;-67
2023/05/20 10:40:16;;;;;;;2.88;2.10;;;;;;;21.94;39.41;102019.34;5284780;28;20388;-67
2023/05/20 10:42:48;;;;;;;6.35;2.50;;;;;;;21.74;39.11;102010.13;5280193;28;20474;-67
2023/05/20 10:45:28;;;;;;;3.53;2.17;;;;;;;21.82;39.85;102012.72;5286060;28;20027;-67
2023/05/20 10:48:00;;;;;;;4.63;2.58;;;;;;;21.65;39.98;102012.00;5283592;28;20039;-67
2023/05/20 10:50:37;;;;;;;7.63;2.73;;;;;;;22.07;40.25;102008.91;5287491;28;20473;-67
2023/05/20 10:53:12;;;;;;;3.85;2.53;;;;;;;22.12;39.96;102003.03;5279272;28;20745;-67
2023/05/20 10:55:53;;;;;;;5.97;1.95;;;;;;;22.52;40.04;102001.09;5283399;28;20039;-67
2023/05/20 10:58:24;;;;;;;5.07;2.30;;;;;;;22.63;39.34;101994.47;5269901;28;20039;-67
2023/05/20 11:00:55;;;;;;;4.97;2.60;;;;;;;22.76;39.09;102011.53;5283845;28;20027;-67
2023/05/20 11:03:28;;;;;;;3.57;2.10;;;;;;;22.99;39.46;101998.13;5284249;28;20115;-67
2023/05/20 11:05:59;;;;;;;5.03;2.50;;;;;;;23.07;38.60;101989.19;5283397;28;20058;-67
2023/05/20 11:08:31;;;;;;;4.37;2.40;;;;;;;23.05;38.16;101996.56;5284445;28;20110;-67
2023/05/20 11:11:02;;;;;;;4.53;2.37;;;;;;;23.29;38.47;101992.75;5280021;28;20753;-67
2023/05/20 11:13:34;;;;;;;3.80;2.17;;;;;;;23.47;38.35;101979.81;5274595;28;20032;-67
2023/05/20 11:16:05;;;;;;;2.87;2.20;;;;;;;23.41;37.25;101983.28;5283951;28;20436;-67
2023/05/20 11:18:37;;;;;;;5.47;2.40;;;;;;;23.00;37.96;101986.44;5285267;28;20028;-67
2023/05/20 11:21:08;;;;;;;3.93;2.10;;;;;;;23.28;37.82;101986.59;5282723;28;20060;-67
2023/05/20 11:23:40;;;;;;;4.60;2.17;;;;;;;23.15;38.11;101975.75;5285856;28;20042;-67
2023/05/20 11:26:11;;;;;;;5.30;2.00;;;;;;;23.25;37.47;101976.25;5265351;28;20035;-67
2023/05/20 11:28:43;;;;;;;3.90;2.10;;;;;;;23.34;38.66;101974.34;5280654;28;20020;-67
2023/05/20 11:31:14;;;;;;;3.87;2.30;;;;;;;23.51;37.53;101983.78;5278264;28;20024;-67
2023/05/20 11:33:45;;;;;;;3.73;2.10;;;;;;;23.52;38.38;101974.75;5270796;28;20040;-67
2023/05/20 11:36:17;;;;;;;3.97;2.30;;;;;;;23.70;37.27;101968.19;5287587;28;20141;-67
2023/05/20 11:38:50;;;;;;;5.93;2.50;;;;;;;23.71;38.13;101967.16;5282635;28;20047;-67
2023/05/20 11:41:25;;;;;;;3.55;2.17;;;;;;;23.84;37.84;101961.13;5285866;28;20028;-67
2023/05/20 11:43:58;;;;;;;8.88;2.75;;;;;;;23.87;37.56;101971.47;5285361;28;20119;-67
2023/05/20 11:46:29;;;;;;;4.65;2.17;;;;;;;23.80;36.78;101960.69;5284816;28;20575;-67
2023/05/20 11:49:00;;;;;;;4.40;2.23;;;;;;;23.72;36.63;101966.97;5283385;28;20024;-67
2023/05/20 11:51:32;;;;;;;5.23;2.33;;;;;;;23.79;36.71;101961.72;5283063;28;20040;-67